createdAt,value
2023-05-10T00:01:20.742Z,80178.75
2023-05-10T00:03:02.148Z,80184.41
2023-05-10T00:04:43.519Z,80179.75
2023-05-10T00:06:24.830Z,80176.31
2023-05-10T00:08:06.122Z,80170.56
2023-05-10T00:09:47.410Z,80174.16
2023-05-10T00:11:28.702Z,80179.88
2023-05-10T00:13:10.032Z,80180.84
2023-05-10T00:14:51.394Z,80175.69
2023-05-10T00:16:32.733Z,80178.75
2023-05-10T00:18:14.050Z,80179.19
2023-05-10T00:19:55.329Z,80177.31
2023-05-10T00:21:36.604Z,80175.06
2023-05-10T00:23:17.924Z,80179.34
2023-05-10T00:24:59.245Z,80178.47
2023-05-10T00:26:40.519Z,80179.81
2023-05-10T00:28:21.812Z,80183.69
2023-05-10T00:30:03.094Z,80173.44
2023-05-10T00:31:44.397Z,80178.72
2023-05-10T00:33:25.774Z,80173.47
2023-05-10T00:35:07.091Z,80180.28
2023-05-10T00:36:48.360Z,80176.75
2023-05-10T00:38:29.680Z,80169.44
2023-05-10T00:40:11.008Z,80169.75
2023-05-10T00:41:52.306Z,80167.50
2023-05-10T00:43:33.625Z,80172.34
2023-05-10T00:45:14.907Z,80172.97
2023-05-10T00:46:56.218Z,80180.41
2023-05-10T00:48:37.517Z,80179.50
2023-05-10T00:50:19.010Z,80169.28
2023-05-10T00:52:00.413Z,80166.56
2023-05-10T00:53:41.713Z,80161.53
2023-05-10T00:55:23.026Z,80167.81
2023-05-10T00:57:04.364Z,80165.16
2023-05-10T00:58:45.649Z,80154.00
2023-05-10T01:00:26.957Z,80161.72
2023-05-10T01:02:08.336Z,80154.09
2023-05-10T01:03:49.645Z,80159.84
2023-05-10T01:05:30.990Z,80161.59
2023-05-10T01:07:12.380Z,80161.16
2023-05-10T01:08:53.672Z,80153.53
2023-05-10T01:10:34.968Z,80160.06
2023-05-10T01:12:16.318Z,80157.41
2023-05-10T01:13:57.664Z,80149.97
2023-05-10T01:15:39.045Z,80151.31
2023-05-10T01:17:20.478Z,80150.31
2023-05-10T01:19:01.839Z,80145.31
2023-05-10T01:20:43.195Z,80145.94
2023-05-10T01:22:24.546Z,80147.72
2023-05-10T01:24:05.858Z,80140.44
2023-05-10T01:25:47.217Z,80142.06
2023-05-10T01:27:29.912Z,80143.16
2023-05-10T01:29:11.210Z,80141.88
2023-05-10T01:30:52.537Z,80137.63
2023-05-10T01:32:33.878Z,80142.69
2023-05-10T01:34:15.227Z,80139.94
2023-05-10T01:35:56.544Z,80139.28
2023-05-10T01:37:37.846Z,80137.06
2023-05-10T01:39:19.146Z,80152.47
2023-05-10T01:41:00.425Z,80155.63
2023-05-10T01:42:41.738Z,80155.66
2023-05-10T01:44:23.007Z,80159.00
2023-05-10T01:46:04.340Z,80154.81
2023-05-10T01:47:45.651Z,80152.78
2023-05-10T01:49:26.964Z,80155.00
2023-05-10T01:51:08.266Z,80160.78
2023-05-10T01:52:49.553Z,80166.56
2023-05-10T01:54:30.848Z,80166.63
2023-05-10T01:56:12.158Z,80171.63
2023-05-10T01:57:53.495Z,80181.97
2023-05-10T01:59:34.824Z,80189.16
2023-05-10T02:01:16.170Z,80179.53
2023-05-10T02:02:57.571Z,80185.81
2023-05-10T02:04:38.901Z,80186.50
2023-05-10T02:06:20.198Z,80188.66
2023-05-10T02:08:01.475Z,80183.63
2023-05-10T02:09:42.786Z,80184.75
2023-05-10T02:11:24.080Z,80185.91
2023-05-10T02:13:05.376Z,80192.72
2023-05-10T02:14:46.673Z,80196.69
2023-05-10T02:16:28.024Z,80194.78
2023-05-10T02:18:09.545Z,80193.56
2023-05-10T02:19:50.882Z,80191.00
2023-05-10T02:21:32.229Z,80183.47
2023-05-10T02:23:13.536Z,80179.69
2023-05-10T02:24:54.842Z,80176.88
2023-05-10T02:26:36.165Z,80177.25
2023-05-10T02:28:17.449Z,80182.53
2023-05-10T02:29:58.713Z,80188.41
2023-05-10T02:31:40.127Z,80174.78
2023-05-10T02:33:21.474Z,80189.06
2023-05-10T02:35:03.235Z,80191.56
2023-05-10T02:36:44.576Z,80185.88
2023-05-10T02:38:25.860Z,80189.84
2023-05-10T02:40:07.152Z,80188.38
2023-05-10T02:41:48.491Z,80186.53
2023-05-10T02:43:29.772Z,80185.03
2023-05-10T02:45:11.042Z,80187.88
2023-05-10T02:46:52.396Z,80176.72
2023-05-10T02:48:33.664Z,80185.56
2023-05-10T02:50:15.138Z,80173.63
2023-05-10T02:51:56.725Z,80174.75
2023-05-10T02:53:37.984Z,80176.69
2023-05-10T02:55:19.257Z,80181.88
2023-05-10T02:57:00.529Z,80177.94
2023-05-10T02:58:41.797Z,80178.91
2023-05-10T03:00:23.108Z,80173.13
2023-05-10T03:02:04.413Z,80173.09
2023-05-10T03:03:45.678Z,80174.47
2023-05-10T03:05:27.037Z,80171.47
2023-05-10T03:07:08.366Z,80168.91
2023-05-10T03:08:49.635Z,80173.91
2023-05-10T03:10:30.910Z,80178.00
2023-05-10T03:12:12.247Z,80174.66
2023-05-10T03:13:53.545Z,80173.09
2023-05-10T03:15:34.840Z,80171.81
2023-05-10T03:17:16.166Z,80175.91
2023-05-10T03:18:57.416Z,80178.50
2023-05-10T03:20:38.688Z,80178.69
2023-05-10T03:22:20.053Z,80176.38
2023-05-10T03:24:01.383Z,80173.47
2023-05-10T03:25:42.645Z,80177.88
2023-05-10T03:27:23.988Z,80175.28
2023-05-10T03:29:05.254Z,80172.19
2023-05-10T03:30:46.514Z,80167.22
2023-05-10T03:32:27.841Z,80167.88
2023-05-10T03:34:09.161Z,80164.66
2023-05-10T03:35:50.455Z,80170.00
2023-05-10T03:37:31.775Z,80168.00
2023-05-10T03:39:13.064Z,80163.63
2023-05-10T03:40:54.374Z,80165.19
2023-05-10T03:42:35.668Z,80149.25
2023-05-10T03:44:16.987Z,80152.38
2023-05-10T03:45:58.432Z,80152.28
2023-05-10T03:47:39.760Z,80147.97
2023-05-10T03:49:21.053Z,80146.13
2023-05-10T03:51:02.357Z,80149.63
2023-05-10T03:52:43.625Z,80159.59
2023-05-10T03:54:24.934Z,80163.63
2023-05-10T03:56:06.225Z,80164.22
2023-05-10T03:57:47.519Z,80160.38
2023-05-10T03:59:28.824Z,80149.19
2023-05-10T04:01:10.128Z,80161.81
2023-05-10T04:02:51.520Z,80157.84
2023-05-10T04:04:32.833Z,80159.72
2023-05-10T04:06:14.252Z,80166.59
2023-05-10T04:07:55.595Z,80158.44
2023-05-10T04:09:36.886Z,80159.22
2023-05-10T04:11:18.175Z,80160.03
2023-05-10T04:12:59.502Z,80162.13
2023-05-10T04:14:40.860Z,80162.50
2023-05-10T04:16:22.302Z,80157.38
2023-05-10T04:18:04.781Z,80153.84
2023-05-10T04:19:46.926Z,80150.28
2023-05-10T04:21:28.233Z,80151.16
2023-05-10T04:23:09.516Z,80145.56
2023-05-10T04:24:50.826Z,80151.50
2023-05-10T04:26:32.201Z,80158.56
2023-05-10T04:29:55.034Z,80153.97
2023-05-10T04:31:36.337Z,80158.31
2023-05-10T04:33:17.697Z,80153.22
2023-05-10T04:34:59.015Z,80157.13
2023-05-10T04:36:40.344Z,80161.72
2023-05-10T04:38:21.630Z,80163.19
2023-05-10T04:40:02.912Z,80156.56
2023-05-10T04:41:44.186Z,80151.13
2023-05-10T04:43:25.476Z,80145.91
2023-05-10T04:45:06.758Z,80145.13
2023-05-10T04:46:48.185Z,80145.75
2023-05-10T04:48:29.654Z,80140.59
2023-05-10T04:50:10.960Z,80143.25
2023-05-10T04:51:52.276Z,80145.38
2023-05-10T04:53:33.555Z,80132.72
2023-05-10T04:55:14.830Z,80140.25
2023-05-10T04:56:56.162Z,80132.94
2023-05-10T04:58:37.443Z,80136.44
2023-05-10T05:00:18.883Z,80135.78
2023-05-10T05:02:00.318Z,80142.13
2023-05-10T05:03:41.763Z,80136.13
2023-05-10T05:05:23.154Z,80139.09
2023-05-10T05:07:04.467Z,80136.91
2023-05-10T05:08:45.736Z,80137.66
2023-05-10T05:10:27.023Z,80144.56
2023-05-10T05:12:08.327Z,80140.56
2023-05-10T05:13:49.697Z,80145.44
2023-05-10T05:15:30.999Z,80144.22
2023-05-10T05:17:12.288Z,80141.00
2023-05-10T05:18:53.607Z,80139.53
2023-05-10T05:20:34.934Z,80138.34
2023-05-10T05:22:17.244Z,80143.19
2023-05-10T05:23:59.608Z,80138.13
2023-05-10T05:25:40.884Z,80138.75
2023-05-10T05:27:22.207Z,80138.84
2023-05-10T05:29:03.490Z,80141.09
2023-05-10T05:30:44.787Z,80137.25
2023-05-10T05:32:26.139Z,80140.66
2023-05-10T05:34:07.464Z,80126.56
2023-05-10T05:35:48.731Z,80129.47
2023-05-10T05:37:30.202Z,80142.84
2023-05-10T05:39:11.524Z,80147.56
2023-05-10T05:40:52.826Z,80148.78
2023-05-10T05:42:34.199Z,80150.28
2023-05-10T05:44:15.486Z,80148.50
2023-05-10T05:45:56.844Z,80150.09
2023-05-10T05:47:38.241Z,80140.69
2023-05-10T05:49:19.586Z,80136.91
2023-05-10T05:51:00.922Z,80141.75
2023-05-10T05:52:42.251Z,80141.66
2023-05-10T05:54:23.547Z,80145.09
2023-05-10T05:56:05.353Z,80150.88
2023-05-10T05:57:46.929Z,80157.97
2023-05-10T05:59:28.203Z,80148.25
2023-05-10T06:01:09.526Z,80141.69
2023-05-10T06:02:50.888Z,80133.59
2023-05-10T06:04:32.451Z,80138.97
2023-05-10T06:06:13.827Z,80141.81
2023-05-10T06:07:55.095Z,80129.66
2023-05-10T06:09:36.392Z,80135.06
2023-05-10T06:11:17.680Z,80139.22
2023-05-10T06:12:58.995Z,80141.22
2023-05-10T06:14:40.298Z,80137.41
2023-05-10T06:16:21.595Z,80133.44
2023-05-10T06:18:02.995Z,80136.13
2023-05-10T06:19:44.358Z,80129.47
2023-05-10T06:21:25.647Z,80133.50
2023-05-10T06:23:06.959Z,80139.50
2023-05-10T06:24:48.272Z,80135.78
2023-05-10T06:26:29.577Z,80136.59
2023-05-10T06:28:10.877Z,80129.63
2023-05-10T06:29:56.519Z,80140.00
2023-05-10T06:31:43.618Z,80140.06
2023-05-10T06:33:24.925Z,80132.97
2023-05-10T06:35:06.220Z,80134.78
2023-05-10T06:36:47.523Z,80149.50
2023-05-10T06:38:28.799Z,80134.28
2023-05-10T06:40:10.100Z,80131.69
2023-05-10T06:41:51.394Z,80140.06
2023-05-10T06:43:32.914Z,80138.25
2023-05-10T06:45:14.355Z,80141.34
2023-05-10T06:46:55.705Z,80138.84
2023-05-10T06:48:37.009Z,80137.25
2023-05-10T06:50:18.334Z,80132.16
2023-05-10T06:51:59.642Z,80133.25
2023-05-10T06:53:40.936Z,80138.63
2023-05-10T06:55:22.223Z,80132.63
2023-05-10T06:57:04.138Z,80130.38
2023-05-10T06:58:47.175Z,80136.84
2023-05-10T07:00:28.530Z,80128.81
2023-05-10T07:02:09.921Z,80127.41
2023-05-10T07:03:51.244Z,80124.91
2023-05-10T07:05:32.648Z,80126.03
2023-05-10T07:07:13.992Z,80110.78
2023-05-10T07:08:55.329Z,80124.75
2023-05-10T07:10:36.649Z,80118.91
2023-05-10T07:12:18.026Z,80127.91
2023-05-10T07:13:59.400Z,80124.53
2023-05-10T07:15:40.714Z,80124.94
2023-05-10T07:17:22.016Z,80130.22
2023-05-10T07:19:03.355Z,80122.41
2023-05-10T07:20:44.701Z,80132.56
2023-05-10T07:22:25.976Z,80129.31
2023-05-10T07:24:07.279Z,80123.25
2023-05-10T07:25:48.570Z,80123.31
2023-05-10T07:27:29.897Z,80118.50
2023-05-10T07:29:11.215Z,80121.94
2023-05-10T07:30:52.553Z,80121.19
2023-05-10T07:32:34.119Z,80123.72
2023-05-10T07:34:15.585Z,80122.94
2023-05-10T07:35:56.952Z,80138.38
2023-05-10T07:37:38.254Z,80128.22
2023-05-10T07:39:26.702Z,80121.72
2023-05-10T07:41:09.182Z,80129.50
2023-05-10T07:42:50.477Z,80127.78
2023-05-10T07:44:31.788Z,80127.00
2023-05-10T07:46:13.196Z,80130.91
2023-05-10T07:47:54.603Z,80132.06
2023-05-10T07:49:35.929Z,80124.66
2023-05-10T07:51:17.213Z,80129.13
2023-05-10T07:52:58.511Z,80133.53
2023-05-10T07:54:42.819Z,80127.66
2023-05-10T07:56:25.712Z,80130.00
2023-05-10T07:58:07.084Z,80125.53
2023-05-10T07:59:48.484Z,80135.06
2023-05-10T08:01:29.791Z,80132.91
2023-05-10T08:03:11.239Z,80121.53
2023-05-10T08:04:52.725Z,80126.50
2023-05-10T08:06:34.034Z,80129.97
2023-05-10T08:08:15.322Z,80124.00
2023-05-10T08:09:56.633Z,80126.94
2023-05-10T08:11:37.962Z,80130.34
2023-05-10T08:13:19.330Z,80125.59
2023-05-10T08:15:00.658Z,80127.22
2023-05-10T08:16:41.929Z,80126.34
2023-05-10T08:18:23.257Z,80126.84
2023-05-10T08:20:04.605Z,80130.38
2023-05-10T08:21:45.919Z,80130.03
2023-05-10T08:23:27.594Z,80123.44
2023-05-10T08:25:08.877Z,80126.53
2023-05-10T08:26:50.219Z,80129.22
2023-05-10T08:28:31.673Z,80130.66
2023-05-10T08:30:12.965Z,80128.84
2023-05-10T08:31:54.280Z,80130.59
2023-05-10T08:33:35.681Z,80132.00
2023-05-10T08:35:17.208Z,80139.84
2023-05-10T08:36:58.713Z,80142.13
2023-05-10T08:38:39.992Z,80140.66
2023-05-10T08:40:21.278Z,80140.47
2023-05-10T08:42:02.624Z,80133.19
2023-05-10T08:43:43.932Z,80136.84
2023-05-10T08:45:25.219Z,80139.63
2023-05-10T08:47:06.611Z,80139.66
2023-05-10T08:48:48.041Z,80133.81
2023-05-10T08:50:29.341Z,80132.53
2023-05-10T08:52:10.683Z,80131.13
2023-05-10T08:53:52.013Z,80128.31
2023-05-10T08:55:33.313Z,80141.34
2023-05-10T08:57:14.853Z,80138.41
2023-05-10T08:58:56.139Z,80138.59
2023-05-10T09:00:37.455Z,80141.88
2023-05-10T09:02:18.992Z,80141.88
2023-05-10T09:04:00.406Z,80150.75
2023-05-10T09:05:41.785Z,80152.13
2023-05-10T09:07:23.122Z,80152.13
2023-05-10T09:09:04.489Z,80156.31
2023-05-10T09:10:45.773Z,80157.59
2023-05-10T09:12:27.059Z,80151.00
2023-05-10T09:14:08.350Z,80149.47
2023-05-10T09:15:49.699Z,80147.88
2023-05-10T09:17:31.226Z,80154.09
2023-05-10T09:19:12.720Z,80155.47
2023-05-10T09:20:54.158Z,80161.50
2023-05-10T09:22:35.509Z,80158.97
2023-05-10T09:24:16.794Z,80167.47
2023-05-10T09:25:58.171Z,80158.50
2023-05-10T09:27:39.488Z,80155.19
2023-05-10T09:29:20.770Z,80157.84
2023-05-10T09:31:02.282Z,80149.78
2023-05-10T09:32:43.943Z,80155.53
2023-05-10T09:34:25.364Z,80145.69
2023-05-10T09:36:06.733Z,80142.13
2023-05-10T09:37:48.067Z,80138.47
2023-05-10T09:39:29.387Z,80145.16
2023-05-10T09:41:10.686Z,80144.25
2023-05-10T09:42:52.083Z,80145.41
2023-05-10T09:44:33.518Z,80147.41
2023-05-10T09:46:14.878Z,80148.59
2023-05-10T09:47:56.253Z,80147.28
2023-05-10T09:49:37.638Z,80144.66
2023-05-10T09:51:18.985Z,80147.22
2023-05-10T09:53:00.303Z,80160.75
2023-05-10T09:54:41.665Z,80155.41
2023-05-10T09:56:22.974Z,80157.53
2023-05-10T09:58:04.268Z,80154.88
2023-05-10T09:59:45.592Z,80154.84
2023-05-10T10:01:27.004Z,80152.59
2023-05-10T10:03:08.428Z,80155.34
2023-05-10T10:04:49.859Z,80152.63
2023-05-10T10:06:31.408Z,80153.19
2023-05-10T10:08:12.771Z,80154.53
2023-05-10T10:09:54.046Z,80151.13
2023-05-10T10:11:35.349Z,80150.16
2023-05-10T10:13:16.670Z,80151.78
2023-05-10T10:14:57.960Z,80151.47
2023-05-10T10:16:45.987Z,80148.50
2023-05-10T10:18:36.955Z,80145.56
2023-05-10T10:20:18.592Z,80147.63
2023-05-10T10:22:00.097Z,80142.06
2023-05-10T10:23:41.471Z,80144.41
2023-05-10T10:25:22.785Z,80151.00
2023-05-10T10:27:04.170Z,80148.09
2023-05-10T10:28:45.482Z,80157.75
2023-05-10T10:30:26.811Z,80152.66
2023-05-10T10:32:08.120Z,80159.75
2023-05-10T10:33:49.440Z,80156.69
2023-05-10T10:35:30.739Z,80153.78
2023-05-10T10:37:12.035Z,80156.84
2023-05-10T10:38:53.481Z,80160.31
2023-05-10T10:40:35.247Z,80158.97
2023-05-10T10:42:16.598Z,80157.31
2023-05-10T10:43:58.637Z,80156.13
2023-05-10T10:45:41.828Z,80157.50
2023-05-10T10:47:23.529Z,80162.13
2023-05-10T10:49:04.854Z,80157.53
2023-05-10T10:50:46.150Z,80156.56
2023-05-10T10:52:27.612Z,80150.13
2023-05-10T10:54:09.160Z,80144.03
2023-05-10T10:55:50.731Z,80149.59
2023-05-10T10:57:32.064Z,80151.97
2023-05-10T10:59:13.382Z,80160.69
2023-05-10T11:00:54.800Z,80152.75
2023-05-10T11:02:36.326Z,80147.81
2023-05-10T11:04:17.947Z,80150.78
2023-05-10T11:05:59.292Z,80149.19
2023-05-10T11:07:40.656Z,80139.53
2023-05-10T11:09:22.022Z,80141.50
2023-05-10T11:11:03.377Z,80148.97
2023-05-10T11:12:44.726Z,80150.47
2023-05-10T11:14:26.038Z,80146.59
2023-05-10T11:16:07.521Z,80148.09
2023-05-10T11:17:48.971Z,80144.19
2023-05-10T11:19:30.307Z,80145.59
2023-05-10T11:21:11.701Z,80145.53
2023-05-10T11:22:53.117Z,80146.72
2023-05-10T11:24:34.396Z,80142.41
2023-05-10T11:26:15.791Z,80135.53
2023-05-10T11:27:57.212Z,80135.56
2023-05-10T11:29:40.541Z,80150.13
2023-05-10T11:31:22.007Z,80136.34
2023-05-10T11:33:03.387Z,80138.16
2023-05-10T11:34:44.760Z,80139.91
2023-05-10T11:36:26.113Z,80136.44
2023-05-10T11:38:07.429Z,80138.22
2023-05-10T11:39:48.990Z,80133.03
2023-05-10T11:41:30.934Z,80135.03
2023-05-10T11:43:12.401Z,80128.81
2023-05-10T11:44:53.886Z,80131.91
2023-05-10T11:46:35.404Z,80128.34
2023-05-10T11:48:16.715Z,80117.78
2023-05-10T11:49:58.070Z,80122.28
2023-05-10T11:51:39.356Z,80118.50
2023-05-10T11:53:20.752Z,80119.22
2023-05-10T11:55:02.058Z,80120.66
2023-05-10T11:56:43.688Z,80115.03
2023-05-10T11:58:25.290Z,80113.00
2023-05-10T12:00:06.809Z,80107.59
2023-05-10T12:01:48.278Z,80112.38
2023-05-10T12:03:29.725Z,80117.00
2023-05-10T12:05:11.286Z,80116.31
2023-05-10T12:06:52.958Z,80119.44
2023-05-10T12:08:34.505Z,80119.31
2023-05-10T12:10:16.499Z,80126.66
2023-05-10T12:11:58.213Z,80125.81
2023-05-10T12:13:39.805Z,80127.31
2023-05-10T12:15:21.317Z,80122.13
2023-05-10T12:17:02.849Z,80118.81
2023-05-10T12:18:44.226Z,80129.13
2023-05-10T12:20:25.558Z,80129.84
2023-05-10T12:22:06.902Z,80131.25
2023-05-10T12:23:48.269Z,80125.06
2023-05-10T12:25:29.560Z,80126.84
2023-05-10T12:27:10.841Z,80133.91
2023-05-10T12:28:52.457Z,80132.72
2023-05-10T12:30:34.073Z,80122.69
2023-05-10T12:32:15.395Z,80124.41
2023-05-10T12:33:56.876Z,80134.00
2023-05-10T12:35:38.376Z,80129.97
2023-05-10T12:37:19.648Z,80122.88
2023-05-10T12:39:00.955Z,80123.09
2023-05-10T12:40:42.638Z,80120.56
2023-05-10T12:42:23.964Z,80118.06
2023-05-10T12:44:05.262Z,80121.34
2023-05-10T12:45:46.616Z,80107.84
2023-05-10T12:47:27.969Z,80113.56
2023-05-10T12:49:09.846Z,80111.91
2023-05-10T12:50:51.632Z,80112.06
2023-05-10T12:52:33.214Z,80109.88
2023-05-10T12:54:14.484Z,80120.94
2023-05-10T12:55:55.791Z,80119.72
2023-05-10T12:57:37.219Z,80119.63
2023-05-10T12:59:18.595Z,80120.25
2023-05-10T13:00:59.945Z,80128.47
2023-05-10T13:02:41.992Z,80125.38
2023-05-10T13:04:23.606Z,80116.53
2023-05-10T13:06:05.061Z,80115.38
2023-05-10T13:07:46.494Z,80121.84
2023-05-10T13:09:27.797Z,80117.34
2023-05-10T13:11:09.111Z,80117.09
2023-05-10T13:12:50.452Z,80112.06
2023-05-10T13:14:31.770Z,80115.59
2023-05-10T13:16:13.090Z,80115.72
2023-05-10T13:17:54.487Z,80121.50
2023-05-10T13:19:36.085Z,80113.22
2023-05-10T13:21:17.688Z,80110.22
2023-05-10T13:22:59.007Z,80115.41
2023-05-10T13:24:40.327Z,80115.13
2023-05-10T13:26:21.603Z,80123.97
2023-05-10T13:28:02.900Z,80116.91
2023-05-10T13:29:45.294Z,80114.69
2023-05-10T13:31:28.030Z,80113.22
2023-05-10T13:33:09.693Z,80103.66
2023-05-10T13:34:51.112Z,80117.16
2023-05-10T13:36:32.565Z,80113.00
2023-05-10T13:38:13.878Z,80108.84
2023-05-10T13:39:55.356Z,80099.00
2023-05-10T13:41:36.759Z,80106.97
2023-05-10T13:43:18.077Z,80102.72
2023-05-10T13:44:59.368Z,80116.09
2023-05-10T13:46:40.707Z,80114.03
2023-05-10T13:48:22.065Z,80117.53
2023-05-10T13:50:03.334Z,80110.88
2023-05-10T13:51:44.623Z,80113.75
2023-05-10T13:53:25.931Z,80115.75
2023-05-10T13:55:07.203Z,80115.19
2023-05-10T13:56:48.537Z,80119.13
2023-05-10T13:58:29.823Z,80107.03
2023-05-10T14:00:11.125Z,80109.00
2023-05-10T14:01:52.792Z,80110.13
2023-05-10T14:03:34.457Z,80114.41
2023-05-10T14:05:16.996Z,80108.16
2023-05-10T14:06:59.459Z,80105.84
2023-05-10T14:08:40.772Z,80098.50
2023-05-10T14:10:22.110Z,80108.06
2023-05-10T14:12:03.402Z,80104.63
2023-05-10T14:13:44.697Z,80103.72
2023-05-10T14:15:25.985Z,80104.69
2023-05-10T14:17:08.235Z,80099.78
2023-05-10T14:18:50.495Z,80105.34
2023-05-10T14:20:31.868Z,80105.31
2023-05-10T14:22:13.140Z,80103.78
2023-05-10T14:23:54.447Z,80107.59
2023-05-10T14:25:35.748Z,80118.06
2023-05-10T14:27:17.068Z,80104.94
2023-05-10T14:28:58.822Z,80110.19
2023-05-10T14:30:40.459Z,80106.72
2023-05-10T14:32:21.922Z,80101.34
2023-05-10T14:34:03.526Z,80106.38
2023-05-10T14:35:45.084Z,80106.13
2023-05-10T14:37:26.484Z,80101.88
2023-05-10T14:39:07.798Z,80112.28
2023-05-10T14:40:49.274Z,80107.50
2023-05-10T14:42:30.829Z,80109.81
2023-05-10T14:44:12.108Z,80112.94
2023-05-10T14:45:53.609Z,80108.69
2023-05-10T14:47:35.057Z,80108.94
2023-05-10T14:49:16.483Z,80116.31
2023-05-10T14:50:58.101Z,80124.97
2023-05-10T14:52:39.523Z,80123.72
2023-05-10T14:54:20.918Z,80119.56
2023-05-10T14:56:02.270Z,80129.56
2023-05-10T14:57:43.603Z,80126.47
2023-05-10T14:59:24.949Z,80133.47
2023-05-10T15:01:06.681Z,80134.63
2023-05-10T15:02:48.416Z,80129.13
2023-05-10T15:04:30.494Z,80140.31
2023-05-10T15:06:12.663Z,80134.00
2023-05-10T15:07:54.130Z,80140.47
2023-05-10T15:09:35.559Z,80134.53
2023-05-10T15:11:16.973Z,80135.63
2023-05-10T15:12:58.495Z,80136.03
2023-05-10T15:14:39.926Z,80143.59
2023-05-10T15:16:21.322Z,80142.03
2023-05-10T15:18:02.677Z,80146.31
2023-05-10T15:19:43.943Z,80146.28
2023-05-10T15:21:25.291Z,80152.03
2023-05-10T15:23:06.629Z,80152.78
2023-05-10T15:24:47.930Z,80153.41
2023-05-10T15:26:29.237Z,80158.56
2023-05-10T15:28:10.521Z,80151.50
2023-05-10T15:29:51.859Z,80146.53
2023-05-10T15:31:33.244Z,80155.19
2023-05-10T15:33:14.565Z,80152.28
2023-05-10T15:34:55.860Z,80147.03
2023-05-10T15:36:37.133Z,80155.34
2023-05-10T15:38:18.452Z,80160.78
2023-05-10T15:39:59.744Z,80170.03
2023-05-10T15:41:41.055Z,80169.09
2023-05-10T15:43:22.329Z,80169.09
2023-05-10T15:45:03.602Z,80164.59
2023-05-10T15:46:45.487Z,80174.38
2023-05-10T15:48:27.282Z,80170.59
2023-05-10T15:50:08.624Z,80175.84
2023-05-10T15:51:49.935Z,80179.56
2023-05-10T15:53:31.238Z,80174.84
2023-05-10T15:55:12.591Z,80180.78
2023-05-10T15:56:53.978Z,80182.31
2023-05-10T15:58:35.303Z,80176.09
2023-05-10T16:00:16.598Z,80182.50
2023-05-10T16:01:57.976Z,80183.47
2023-05-10T16:03:39.350Z,80181.75
2023-05-10T16:05:20.667Z,80177.88
2023-05-10T16:07:01.989Z,80172.72
2023-05-10T16:08:43.301Z,80170.66
2023-05-10T16:10:24.594Z,80172.88
2023-05-10T16:12:05.886Z,80169.28
2023-05-10T16:13:47.420Z,80162.75
2023-05-10T16:15:28.976Z,80166.59
2023-05-10T16:17:10.594Z,80176.13
2023-05-10T16:18:52.240Z,80169.91
2023-05-10T16:20:33.648Z,80168.06
2023-05-10T16:22:14.942Z,80172.47
2023-05-10T16:23:56.237Z,80172.84
2023-05-10T16:25:37.641Z,80176.03
2023-05-10T16:27:18.980Z,80175.22
2023-05-10T16:29:00.238Z,80169.81
2023-05-10T16:30:41.637Z,80170.63
2023-05-10T16:32:23.050Z,80169.16
2023-05-10T16:34:04.419Z,80168.97
2023-05-10T16:35:45.707Z,80178.94
2023-05-10T16:37:26.986Z,80169.63
2023-05-10T16:39:08.368Z,80180.13
2023-05-10T16:40:50.057Z,80177.47
2023-05-10T16:42:31.386Z,80175.44
2023-05-10T16:44:12.691Z,80174.19
2023-05-10T16:45:54.259Z,80166.66
2023-05-10T16:47:35.958Z,80165.97
2023-05-10T16:49:17.576Z,80167.19
2023-05-10T16:50:58.845Z,80177.03
2023-05-10T16:52:40.140Z,80173.28
2023-05-10T16:54:21.449Z,80178.13
2023-05-10T16:56:02.715Z,80180.78
2023-05-10T16:57:44.254Z,80178.16
2023-05-10T16:59:25.780Z,80186.84
2023-05-10T17:01:07.259Z,80187.56
2023-05-10T17:02:48.771Z,80182.50
2023-05-10T17:04:30.187Z,80180.00
2023-05-10T17:06:11.548Z,80176.47
2023-05-10T17:07:53.073Z,80173.16
2023-05-10T17:09:34.449Z,80179.59
2023-05-10T17:11:15.810Z,80173.31
2023-05-10T17:12:57.106Z,80173.91
2023-05-10T17:14:38.425Z,80181.38
2023-05-10T17:16:19.826Z,80175.88
2023-05-10T17:18:01.216Z,80181.53
2023-05-10T17:19:42.514Z,80174.28
2023-05-10T17:21:23.895Z,80171.34
2023-05-10T17:23:05.179Z,80175.75
2023-05-10T17:24:46.481Z,80175.66
2023-05-10T17:26:27.805Z,80170.25
2023-05-10T17:28:09.130Z,80173.19
2023-05-10T17:29:50.662Z,80173.66
2023-05-10T17:31:32.309Z,80176.25
2023-05-10T17:33:13.655Z,80177.88
2023-05-10T17:34:54.971Z,80180.31
2023-05-10T17:36:36.303Z,80166.91
2023-05-10T17:38:17.622Z,80171.69
2023-05-10T17:39:58.924Z,80185.97
2023-05-10T17:41:40.204Z,80180.13
2023-05-10T17:43:21.481Z,80176.09
2023-05-10T17:45:02.805Z,80181.69
2023-05-10T17:46:44.125Z,80181.06
2023-05-10T17:48:25.441Z,80184.94
2023-05-10T17:50:06.856Z,80185.16
2023-05-10T17:51:48.157Z,80183.81
2023-05-10T17:53:29.461Z,80186.91
2023-05-10T17:55:10.780Z,80187.88
2023-05-10T17:56:52.070Z,80178.34
2023-05-10T17:58:33.349Z,80182.88
2023-05-10T18:00:14.653Z,80184.13
2023-05-10T18:01:56.086Z,80187.25
2023-05-10T18:03:37.356Z,80188.41
2023-05-10T18:05:18.962Z,80198.06
2023-05-10T18:07:00.540Z,80197.16
2023-05-10T18:08:41.847Z,80191.25
2023-05-10T18:10:23.182Z,80192.41
2023-05-10T18:12:04.464Z,80196.56
2023-05-10T18:13:45.748Z,80193.97
2023-05-10T18:15:27.049Z,80198.59
2023-05-10T18:17:08.420Z,80194.84
2023-05-10T18:18:49.807Z,80207.16
2023-05-10T18:20:31.104Z,80198.78
2023-05-10T18:22:12.385Z,80199.84
2023-05-10T18:23:53.697Z,80203.81
2023-05-10T18:25:34.992Z,80206.97
2023-05-10T18:27:16.269Z,80207.69
2023-05-10T18:29:01.368Z,80208.78
2023-05-10T18:30:43.199Z,80201.72
2023-05-10T18:32:24.510Z,80191.38
2023-05-10T18:34:05.825Z,80196.41
2023-05-10T18:35:47.078Z,80203.84
2023-05-10T18:37:28.351Z,80204.69
2023-05-10T18:39:09.667Z,80200.47
2023-05-10T18:40:50.947Z,80205.72
2023-05-10T18:42:32.221Z,80207.28
2023-05-10T18:44:13.543Z,80213.84
2023-05-10T18:45:54.847Z,80210.22
2023-05-10T18:47:36.176Z,80195.88
2023-05-10T18:49:17.510Z,80208.50
2023-05-10T18:50:58.808Z,80199.41
2023-05-10T18:52:40.301Z,80208.06
2023-05-10T18:54:21.762Z,80206.38
2023-05-10T18:56:03.054Z,80206.13
2023-05-10T18:57:44.375Z,80208.28
2023-05-10T18:59:25.666Z,80213.94
2023-05-10T19:01:06.956Z,80203.03
2023-05-10T19:02:48.319Z,80202.94
2023-05-10T19:04:29.753Z,80212.22
2023-05-10T19:06:11.084Z,80207.06
2023-05-10T19:07:52.386Z,80207.13
2023-05-10T19:09:33.681Z,80210.09
2023-05-10T19:11:14.992Z,80210.59
2023-05-10T19:12:56.305Z,80208.50
2023-05-10T19:14:37.591Z,80203.53
2023-05-10T19:16:24.103Z,80212.97
2023-05-10T19:18:08.708Z,80208.91
2023-05-10T19:19:50.708Z,80213.94
2023-05-10T19:21:33.068Z,80220.88
2023-05-10T19:23:15.032Z,80220.19
2023-05-10T19:24:57.522Z,80221.66
2023-05-10T19:26:38.867Z,80226.78
2023-05-10T19:28:20.182Z,80223.28
2023-05-10T19:30:01.585Z,80224.97
2023-05-10T19:31:44.223Z,80223.69
2023-05-10T19:33:26.132Z,80222.53
2023-05-10T19:35:07.495Z,80224.13
2023-05-10T19:36:48.769Z,80228.88
2023-05-10T19:38:30.071Z,80230.34
2023-05-10T19:40:11.875Z,80228.06
2023-05-10T19:41:53.222Z,80235.63
2023-05-10T19:43:34.667Z,80225.97
2023-05-10T19:45:16.658Z,80223.81
2023-05-10T19:46:58.336Z,80237.59
2023-05-10T19:48:39.699Z,80227.34
2023-05-10T19:50:20.980Z,80235.59
2023-05-10T19:52:02.297Z,80241.19
2023-05-10T19:53:43.599Z,80237.47